createdAt,value
2022-10-19T00:09:55.108Z,12.45
2022-10-19T00:24:58.075Z,12.44
2022-10-19T00:40:00.239Z,12.25
2022-10-19T00:55:02.921Z,12.18
2022-10-19T01:10:05.324Z,12.13
2022-10-19T01:25:29.771Z,12.23
2022-10-19T01:40:53.751Z,12.23
2022-10-19T01:55:57.203Z,12.17
2022-10-19T02:11:00.153Z,12.14
2022-10-19T02:26:02.320Z,11.97
2022-10-19T02:41:18.650Z,11.79
2022-10-19T02:56:20.589Z,11.77
2022-10-19T03:11:22.497Z,11.82
2022-10-19T03:26:24.364Z,12.01
2022-10-19T03:41:28.592Z,11.87
2022-10-19T03:56:32.262Z,11.68
2022-10-19T04:11:35.278Z,11.60
2022-10-19T04:26:43.228Z,11.67
2022-10-19T04:41:45.108Z,11.71
2022-10-19T04:56:47.171Z,12.58
2022-10-19T05:11:51.890Z,13.82
2022-10-19T05:26:53.789Z,15.12
2022-10-19T05:41:55.748Z,16.49
2022-10-19T05:56:57.970Z,18.67
2022-10-19T06:11:59.838Z,19.30
2022-10-19T06:27:01.721Z,19.46
2022-10-19T06:42:03.661Z,20.93
2022-10-19T06:57:05.729Z,22.03
2022-10-19T07:12:10.840Z,22.92
2022-10-19T07:27:13.880Z,24.03
2022-10-19T07:42:15.931Z,24.94
2022-10-19T07:57:18.272Z,25.58
2022-10-19T08:12:20.146Z,26.11
2022-10-19T08:27:22.226Z,26.30
2022-10-19T08:42:33.158Z,26.36
2022-10-19T08:57:41.257Z,26.60
2022-10-19T09:12:53.886Z,27.10
2022-10-19T09:28:11.539Z,27.39
2022-10-19T09:43:22.459Z,27.05
2022-10-19T09:58:30.488Z,26.43
2022-10-19T10:13:43.760Z,26.65
2022-10-19T10:28:50.811Z,27.12
2022-10-19T10:44:04.749Z,27.36
2022-10-19T10:59:16.022Z,27.31
2022-10-19T11:14:42.860Z,27.32
2022-10-19T11:30:10.762Z,27.73
2022-10-19T11:45:47.450Z,28.47
2022-10-19T12:01:13.395Z,28.62
2022-10-19T12:16:17.560Z,24.51
2022-10-19T12:31:19.861Z,22.67
2022-10-19T12:46:51.723Z,22.13
2022-10-19T13:02:00.907Z,21.63
2022-10-19T13:17:04.194Z,21.46
2022-10-19T13:32:40.604Z,21.38
2022-10-19T13:47:48.983Z,21.01
2022-10-19T14:03:38.485Z,20.97
2022-10-19T14:18:42.280Z,20.63
2022-10-19T14:33:48.129Z,20.31
2022-10-19T14:48:51.214Z,19.98
2022-10-19T15:03:53.689Z,19.84
2022-10-19T15:18:55.724Z,19.63
2022-10-19T15:34:00.694Z,19.52
2022-10-19T15:49:25.068Z,19.42
2022-10-19T16:04:27.110Z,19.34
2022-10-19T16:19:28.959Z,19.19
2022-10-19T16:34:30.977Z,18.99
2022-10-19T16:49:32.968Z,18.28
2022-10-19T17:04:35.114Z,17.72
2022-10-19T17:19:37.526Z,17.39
2022-10-19T17:34:39.434Z,16.89
2022-10-19T17:49:41.397Z,16.50
2022-10-19T18:04:43.368Z,16.28
2022-10-19T18:49:56.957Z,16.17
2022-10-19T19:04:58.931Z,15.73
2022-10-19T19:20:00.744Z,15.40
2022-10-19T19:35:02.569Z,15.16
2022-10-19T19:50:04.630Z,15.06
2022-10-19T20:05:07.507Z,15.00
2022-10-19T20:20:11.078Z,14.97
2022-10-19T20:35:12.896Z,14.95
2022-10-19T20:50:16.099Z,14.93
2022-10-19T21:05:20.012Z,14.97
2022-10-19T21:20:24.765Z,14.97
2022-10-19T21:35:26.639Z,14.98
2022-10-19T21:50:28.443Z,14.97
2022-10-19T22:05:30.358Z,15.04
2022-10-19T22:20:33.880Z,14.84
2022-10-19T22:35:35.666Z,14.75
2022-10-19T22:51:15.139Z,14.65
2022-10-19T23:06:18.640Z,14.65
2022-10-19T23:21:20.453Z,14.61
2022-10-19T23:36:25.302Z,14.52
2022-10-19T23:51:27.527Z,14.37
